Time;durP1;ratioP1;P1;durP2;ratioP2;P2;SDS_P1;SDS_P2;PMS_P1;PMS_P2;Temp;Humidity;BMP_temperature;BMP_pressure;BME280_temperature;BME280_humidity;BME280_pressure;Samples;Min_cycle;Max_cycle;Signal;HPM_P1;HPM_P2
2022/11/10 00:02:19;;;;;;;9.63;3.57;;;;;;;;;;5073345;28;20226;-69
2022/11/10 00:04:45;;;;;;;8.47;3.10;;;;;;;;;;5073364;28;20186;-69
2022/11/10 00:07:11;;;;;;;18.00;3.67;;;;;;;;;;5073130;28;20177;-68
2022/11/10 00:09:37;;;;;;;10.90;3.53;;;;;;;;;;5073872;28;20545;-69
2022/11/10 00:12:03;;;;;;;10.67;3.13;;;;;;;;;;5055147;28;20624;-69
2022/11/10 00:17:13;;;;;;;9.03;3.70;;;;;;;;;;5073437;28;20235;-69
2022/11/10 00:19:39;;;;;;;12.63;3.80;;;;;;;;;;5055202;28;20182;-70
2022/11/10 00:22:05;;;;;;;13.70;3.57;;;;;;;;;;5072975;28;20251;-69
2022/11/10 00:24:31;;;;;;;13.87;4.13;;;;;;;;;;5055139;28;20607;-68
2022/11/10 00:26:57;;;;;;;12.43;3.93;;;;;;;;;;5072938;28;20674;-68
2022/11/10 00:29:23;;;;;;;12.13;4.17;;;;;;;;;;5073549;28;20178;-69
2022/11/10 00:31:49;;;;;;;12.53;3.90;;;;;;;;;;5054886;28;20657;-69
2022/11/10 00:34:16;;;;;;;13.50;3.50;;;;;;;;;;5072855;28;20201;-69
2022/11/10 00:36:42;;;;;;;11.23;3.37;;;;;;;;;;5054943;28;20174;-68
2022/11/10 00:39:09;;;;;;;10.70;3.57;;;;;;;;;;5054860;28;20205;-69
2022/11/10 00:41:35;;;;;;;11.43;3.33;;;;;;;;;;5054919;28;20591;-69
2022/11/10 00:44:01;;;;;;;14.47;3.60;;;;;;;;;;5072706;28;20214;-69
2022/11/10 00:46:27;;;;;;;12.87;3.67;;;;;;;;;;5073093;28;20311;-68
2022/11/10 00:48:53;;;;;;;15.17;3.53;;;;;;;;;;5072983;28;20214;-68
2022/11/10 00:51:19;;;;;;;11.43;3.50;;;;;;;;;;5073146;28;20177;-68
2022/11/10 00:53:45;;;;;;;12.70;3.63;;;;;;;;;;5072974;28;20210;-68
2022/11/10 00:56:11;;;;;;;10.03;3.33;;;;;;;;;;5073494;28;20223;-69
2022/11/10 00:58:37;;;;;;;11.67;3.47;;;;;;;;;;5073662;28;20642;-68
2022/11/10 01:01:03;;;;;;;15.77;3.80;;;;;;;;;;5073094;28;20626;-69
2022/11/10 01:03:29;;;;;;;9.50;3.53;;;;;;;;;;5054963;28;20197;-69
2022/11/10 01:05:55;;;;;;;11.80;3.63;;;;;;;;;;5072630;28;20193;-69
2022/11/10 01:08:21;;;;;;;9.93;3.33;;;;;;;;;;5072638;28;20178;-69
2022/11/10 01:10:47;;;;;;;11.63;3.43;;;;;;;;;;5072859;28;20269;-68
2022/11/10 01:13:13;;;;;;;13.07;3.20;;;;;;;;;;5075732;28;20206;-69
2022/11/10 01:15:40;;;;;;;11.10;3.30;;;;;;;;;;5076384;28;20173;-69
2022/11/10 01:18:06;;;;;;;9.13;3.30;;;;;;;;;;5076140;28;20178;-69
2022/11/10 01:20:35;;;;;;;7.87;3.03;;;;;;;;;;5058252;28;20178;-68
2022/11/10 01:23:01;;;;;;;12.87;3.50;;;;;;;;;;5075980;28;20201;-69
2022/11/10 01:25:27;;;;;;;12.80;3.73;;;;;;;;;;5076382;28;20542;-68
2022/11/10 01:27:53;;;;;;;17.73;4.07;;;;;;;;;;5076289;28;20186;-69
2022/11/10 01:30:19;;;;;;;11.10;3.20;;;;;;;;;;5075903;28;20182;-69
2022/11/10 01:32:45;;;;;;;18.20;3.50;;;;;;;;;;5057779;28;20593;-69
2022/11/10 01:35:11;;;;;;;11.70;3.23;;;;;;;;;;5075850;28;20178;-70
2022/11/10 01:37:37;;;;;;;14.60;3.90;;;;;;;;;;5057867;28;20182;-69
2022/11/10 01:40:04;;;;;;;13.13;3.50;;;;;;;;;;5075926;28;20196;-69
2022/11/10 01:43:02;;;;;;;12.43;3.40;;;;;;;;;;5057560;28;20221;-69
2022/11/10 01:45:41;;;;;;;11.80;3.70;;;;;;;;;;5025178;28;20197;-69
2022/11/10 01:48:07;;;;;;;13.07;3.60;;;;;;;;;;5075635;28;20175;-69
2022/11/10 01:50:36;;;;;;;15.77;3.73;;;;;;;;;;5057599;28;20182;-69
2022/11/10 01:53:02;;;;;;;13.73;3.20;;;;;;;;;;5057332;28;20209;-69
2022/11/10 01:55:29;;;;;;;16.73;4.17;;;;;;;;;;5075846;28;20511;-69
2022/11/10 01:57:55;;;;;;;16.10;3.87;;;;;;;;;;5075287;28;20170;-69
2022/11/10 02:00:21;;;;;;;10.93;3.07;;;;;;;;;;5057318;28;20182;-69
2022/11/10 02:02:54;;;;;;;17.23;3.40;;;;;;;;;;5057136;28;20240;-69
2022/11/10 02:05:21;;;;;;;7.47;3.10;;;;;;;;;;5075210;28;20178;-70
2022/11/10 02:07:47;;;;;;;16.93;3.73;;;;;;;;;;5075312;28;20178;-69
2022/11/10 02:10:14;;;;;;;9.57;3.60;;;;;;;;;;5075236;28;20177;-69
2022/11/10 02:12:41;;;;;;;17.73;3.67;;;;;;;;;;5075153;28;20252;-69
2022/11/10 02:15:08;;;;;;;12.63;3.20;;;;;;;;;;5075482;28;20210;-69
2022/11/10 02:17:34;;;;;;;12.77;3.33;;;;;;;;;;5075008;28;20665;-69
2022/11/10 02:20:03;;;;;;;9.23;3.30;;;;;;;;;;5074967;28;20267;-69
2022/11/10 02:22:29;;;;;;;14.57;3.03;;;;;;;;;;5056840;28;20202;-69
2022/11/10 02:24:55;;;;;;;17.27;3.67;;;;;;;;;;5056320;28;20601;-69
2022/11/10 02:27:21;;;;;;;14.07;3.83;;;;;;;;;;5075113;28;20205;-69
2022/11/10 02:29:47;;;;;;;11.00;3.43;;;;;;;;;;5075080;28;20185;-69
2022/11/10 02:32:13;;;;;;;19.37;3.60;;;;;;;;;;5056660;28;20267;-68
2022/11/10 02:34:39;;;;;;;11.27;3.87;;;;;;;;;;5056816;28;20237;-69
2022/11/10 02:37:05;;;;;;;19.00;4.80;;;;;;;;;;5074829;28;20212;-69
2022/11/10 02:39:31;;;;;;;14.97;3.53;;;;;;;;;;5076099;28;20200;-69
2022/11/10 02:41:57;;;;;;;15.30;4.20;;;;;;;;;;5074783;28;20170;-69
2022/11/10 02:44:23;;;;;;;12.80;3.80;;;;;;;;;;5056769;28;20752;-68
2022/11/10 02:46:48;;;;;;;19.83;3.80;;;;;;;;;;5057025;28;20551;-69
2022/11/10 02:49:14;;;;;;;13.00;3.37;;;;;;;;;;5074497;28;20235;-70
2022/11/10 02:51:40;;;;;;;13.17;3.20;;;;;;;;;;5056560;28;20173;-69
2022/11/10 02:54:06;;;;;;;12.33;4.13;;;;;;;;;;5074243;28;20221;-69
2022/11/10 02:56:34;;;;;;;18.00;3.83;;;;;;;;;;5074566;28;20182;-69
2022/11/10 02:59:00;;;;;;;11.37;3.60;;;;;;;;;;5074869;28;20174;-69
2022/11/10 03:01:26;;;;;;;10.50;3.63;;;;;;;;;;5056260;28;20173;-69
2022/11/10 03:03:52;;;;;;;13.60;3.47;;;;;;;;;;5074152;28;20198;-68
2022/11/10 03:06:18;;;;;;;14.33;3.47;;;;;;;;;;5074293;28;20184;-70
2022/11/10 03:08:44;;;;;;;12.73;3.53;;;;;;;;;;5056115;28;20185;-70
2022/11/10 03:11:10;;;;;;;16.13;3.60;;;;;;;;;;5074497;28;20256;-68
2022/11/10 03:13:36;;;;;;;13.93;3.40;;;;;;;;;;5073866;28;20297;-69
2022/11/10 03:16:02;;;;;;;22.53;4.27;;;;;;;;;;5056140;28;20228;-69
2022/11/10 03:18:27;;;;;;;12.77;3.30;;;;;;;;;;5056287;28;20186;-69
2022/11/10 03:20:53;;;;;;;9.40;3.37;;;;;;;;;;5074165;28;20170;-69
2022/11/10 03:23:19;;;;;;;12.70;3.87;;;;;;;;;;5074303;28;20201;-69
2022/11/10 03:25:45;;;;;;;14.90;3.97;;;;;;;;;;5073938;28;20185;-69
2022/11/10 03:28:11;;;;;;;16.67;3.77;;;;;;;;;;5073725;28;20184;-69
2022/11/10 03:30:38;;;;;;;11.33;3.10;;;;;;;;;;5073846;28;20294;-69
2022/11/10 03:33:04;;;;;;;13.93;4.30;;;;;;;;;;5073478;28;20205;-69
2022/11/10 03:35:30;;;;;;;12.40;3.27;;;;;;;;;;5054772;28;20181;-69
2022/11/10 03:37:56;;;;;;;13.80;3.37;;;;;;;;;;5055750;28;20180;-69
2022/11/10 03:40:22;;;;;;;14.87;3.60;;;;;;;;;;5055679;28;20173;-69
2022/11/10 03:42:48;;;;;;;15.83;3.97;;;;;;;;;;5073326;28;20217;-69
2022/11/10 03:45:14;;;;;;;13.00;3.73;;;;;;;;;;5073640;28;20188;-69
2022/11/10 03:47:44;;;;;;;18.20;3.80;;;;;;;;;;5055430;28;20190;-69
2022/11/10 03:50:10;;;;;;;14.67;3.80;;;;;;;;;;5073724;28;20697;-69
2022/11/10 03:52:38;;;;;;;13.53;4.00;;;;;;;;;;5073266;28;20293;-69
2022/11/10 03:55:04;;;;;;;12.17;3.63;;;;;;;;;;5055418;28;20177;-70
2022/11/10 03:57:30;;;;;;;11.53;3.77;;;;;;;;;;5073328;28;20180;-69
2022/11/10 03:59:56;;;;;;;15.50;3.63;;;;;;;;;;5073856;28;20260;-69
2022/11/10 04:02:22;;;;;;;14.43;3.33;;;;;;;;;;5055305;28;20201;-70
2022/11/10 04:10:17;;;;;;;15.33;4.03;;;;;;;;;;5073512;28;20173;-69
2022/11/10 04:15:42;;;;;;;20.00;3.83;;;;;;;;;;5073387;28;20219;-69
2022/11/10 04:18:24;;;;;;;14.57;3.97;;;;;;;;;;5073038;28;20174;-69
2022/11/10 04:20:54;;;;;;;16.03;4.10;;;;;;;;;;5073344;28;20162;-69
2022/11/10 04:23:27;;;;;;;15.27;3.80;;;;;;;;;;5055089;28;20208;-69
2022/11/10 04:28:38;;;;;;;15.77;3.67;;;;;;;;;;5073359;28;20226;-69
2022/11/10 04:31:04;;;;;;;21.37;3.63;;;;;;;;;;5055069;28;20254;-69
2022/11/10 04:33:30;;;;;;;14.80;4.00;;;;;;;;;;5072789;28;20219;-69
2022/11/10 04:35:56;;;;;;;15.60;3.70;;;;;;;;;;5054913;28;20178;-69
2022/11/10 04:38:22;;;;;;;19.33;4.27;;;;;;;;;;5072987;28;20217;-69
2022/11/10 04:40:48;;;;;;;15.47;4.07;;;;;;;;;;5072902;28;20178;-69
2022/11/10 04:43:14;;;;;;;15.83;3.60;;;;;;;;;;5054845;28;20224;-69
2022/11/10 04:45:40;;;;;;;16.30;3.80;;;;;;;;;;5087832;22;20229;-71
2022/11/10 04:48:06;;;;;;;17.40;3.67;;;;;;;;;;5075429;28;20185;-71
2022/11/10 04:50:32;;;;;;;17.00;3.80;;;;;;;;;;5075781;28;20184;-71
2022/11/10 04:52:58;;;;;;;16.33;4.10;;;;;;;;;;5075694;28;20209;-71
2022/11/10 04:55:24;;;;;;;18.60;3.90;;;;;;;;;;5076767;28;20201;-71
2022/11/10 04:57:50;;;;;;;12.73;3.70;;;;;;;;;;5075715;28;20174;-71
2022/11/10 05:00:16;;;;;;;17.10;4.53;;;;;;;;;;5075547;28;20355;-69
2022/11/10 05:02:42;;;;;;;14.70;4.00;;;;;;;;;;5075616;28;20182;-72
2022/11/10 05:05:08;;;;;;;9.70;3.50;;;;;;;;;;5075297;28;20247;-71
2022/11/10 05:07:34;;;;;;;16.47;4.33;;;;;;;;;;5076975;28;20638;-71
2022/11/10 05:10:00;;;;;;;17.37;4.30;;;;;;;;;;5076842;28;20203;-72
2022/11/10 05:12:26;;;;;;;16.87;4.07;;;;;;;;;;5075196;28;20578;-71
2022/11/10 05:14:52;;;;;;;17.80;3.60;;;;;;;;;;5076527;28;20197;-71
2022/11/10 05:17:18;;;;;;;11.83;3.63;;;;;;;;;;5076702;28;20265;-71
2022/11/10 05:19:46;;;;;;;17.03;4.57;;;;;;;;;;5075180;28;20260;-72
2022/11/10 05:22:12;;;;;;;12.73;3.50;;;;;;;;;;5075177;28;20213;-71
2022/11/10 05:24:38;;;;;;;23.97;4.60;;;;;;;;;;5075271;28;20235;-72
2022/11/10 05:27:04;;;;;;;19.47;3.80;;;;;;;;;;5075024;28;20208;-71
2022/11/10 05:29:30;;;;;;;17.13;4.53;;;;;;;;;;5075154;28;20174;-71
2022/11/10 05:31:55;;;;;;;21.17;4.30;;;;;;;;;;5075394;28;20227;-71
2022/11/10 05:34:22;;;;;;;17.50;4.13;;;;;;;;;;5074892;28;20188;-71
2022/11/10 05:36:47;;;;;;;13.67;3.67;;;;;;;;;;5075306;28;20289;-71
2022/11/10 05:39:13;;;;;;;10.67;3.13;;;;;;;;;;5075153;28;20277;-71
2022/11/10 05:41:39;;;;;;;18.67;4.30;;;;;;;;;;5076350;28;20174;-72
2022/11/10 05:44:05;;;;;;;22.63;5.03;;;;;;;;;;5076220;28;20182;-72
2022/11/10 05:46:31;;;;;;;15.53;3.90;;;;;;;;;;5075843;28;20213;-71
2022/11/10 05:48:57;;;;;;;15.87;4.20;;;;;;;;;;5075841;28;20177;-72
2022/11/10 05:51:23;;;;;;;24.20;4.57;;;;;;;;;;5075886;28;20256;-71
2022/11/10 05:53:49;;;;;;;13.17;3.83;;;;;;;;;;5075988;28;20205;-72
2022/11/10 05:56:15;;;;;;;16.93;4.13;;;;;;;;;;5075903;28;20250;-72
2022/11/10 05:58:41;;;;;;;13.20;3.90;;;;;;;;;;5074982;28;20213;-71
2022/11/10 06:01:07;;;;;;;16.97;4.10;;;;;;;;;;5074603;28;20178;-72
2022/11/10 06:03:33;;;;;;;19.40;4.47;;;;;;;;;;5075629;28;20174;-71
2022/11/10 06:05:59;;;;;;;15.37;3.73;;;;;;;;;;5075662;28;20684;-71
2022/11/10 06:08:25;;;;;;;19.93;3.93;;;;;;;;;;5076112;28;20661;-71
2022/11/10 06:10:51;;;;;;;26.77;4.53;;;;;;;;;;5075496;28;20259;-71
2022/11/10 06:13:17;;;;;;;14.00;3.60;;;;;;;;;;5074186;28;20209;-71
2022/11/10 06:15:43;;;;;;;19.43;4.00;;;;;;;;;;5075332;28;20198;-72
2022/11/10 06:18:09;;;;;;;18.43;4.70;;;;;;;;;;5075278;28;20189;-71
2022/11/10 06:20:35;;;;;;;21.83;4.73;;;;;;;;;;5074098;28;20280;-71
2022/11/10 06:23:01;;;;;;;17.40;3.97;;;;;;;;;;5073966;28;20339;-72
2022/11/10 06:25:28;;;;;;;16.10;4.27;;;;;;;;;;5073884;28;20271;-71
2022/11/10 06:27:54;;;;;;;19.90;4.00;;;;;;;;;;5074060;28;20645;-71
2022/11/10 06:30:20;;;;;;;14.33;3.47;;;;;;;;;;5075391;28;20676;-71
2022/11/10 06:32:45;;;;;;;19.17;3.67;;;;;;;;;;5075267;28;20201;-70
2022/11/10 06:35:11;;;;;;;20.03;4.43;;;;;;;;;;5073847;28;20177;-71
2022/11/10 06:37:38;;;;;;;19.40;3.77;;;;;;;;;;5075012;28;20170;-72
2022/11/10 06:40:05;;;;;;;17.93;4.37;;;;;;;;;;5075271;28;20253;-71
2022/11/10 06:42:31;;;;;;;19.07;4.17;;;;;;;;;;5075264;28;20182;-71
2022/11/10 06:44:57;;;;;;;14.33;4.03;;;;;;;;;;5073579;28;20185;-72
2022/11/10 06:47:23;;;;;;;14.87;4.87;;;;;;;;;;5075317;28;20231;-71
2022/11/10 06:49:49;;;;;;;13.27;3.93;;;;;;;;;;5076743;28;20223;-72
2022/11/10 06:52:15;;;;;;;22.33;4.50;;;;;;;;;;5076604;28;20182;-72
2022/11/10 06:54:41;;;;;;;16.50;4.40;;;;;;;;;;5078038;28;20178;-71
2022/11/10 06:57:07;;;;;;;19.27;3.90;;;;;;;;;;5075979;28;20194;-71
2022/11/10 06:59:33;;;;;;;14.70;3.90;;;;;;;;;;5074334;28;20185;-71
2022/11/10 07:01:59;;;;;;;13.70;4.03;;;;;;;;;;5075205;28;20166;-71
2022/11/10 07:04:25;;;;;;;18.47;4.00;;;;;;;;;;5087677;28;20169;-72
2022/11/10 07:06:51;;;;;;;18.37;4.47;;;;;;;;;;5095142;28;20276;-73
2022/11/10 07:09:17;;;;;;;19.03;5.33;;;;;;;;;;5095201;28;20186;-72
2022/11/10 07:11:43;;;;;;;13.60;3.97;;;;;;;;;;5094296;28;20238;-71
2022/11/10 07:14:09;;;;;;;19.37;5.43;;;;;;;;;;5095480;28;20209;-71
2022/11/10 07:16:35;;;;;;;15.47;6.00;;;;;;;;;;5094048;28;20198;-72
2022/11/10 07:19:01;;;;;;;23.60;4.73;;;;;;;;;;5095667;28;20178;-72
2022/11/10 07:21:27;;;;;;;15.53;3.73;;;;;;;;;;5093215;28;20266;-71
2022/11/10 07:23:53;;;;;;;17.40;7.27;;;;;;;;;;5076361;28;20185;-71
2022/11/10 07:26:19;;;;;;;17.43;5.07;;;;;;;;;;5072993;28;20208;-71
2022/11/10 07:28:45;;;;;;;23.13;4.90;;;;;;;;;;5074239;28;20185;-71
2022/11/10 07:31:11;;;;;;;17.70;3.93;;;;;;;;;;5072826;28;20668;-71
2022/11/10 07:33:37;;;;;;;17.27;4.23;;;;;;;;;;5074031;28;20201;-71
2022/11/10 07:36:03;;;;;;;22.20;4.73;;;;;;;;;;5073846;28;20197;-71
2022/11/10 07:38:29;;;;;;;15.33;4.00;;;;;;;;;;5072835;28;20181;-71
2022/11/10 07:40:55;;;;;;;19.80;4.73;;;;;;;;;;5073062;28;20199;-71
2022/11/10 07:43:22;;;;;;;24.17;4.83;;;;;;;;;;5074499;28;20178;-71
2022/11/10 07:45:49;;;;;;;17.73;4.27;;;;;;;;;;5072478;28;20224;-71
2022/11/10 07:48:15;;;;;;;13.47;4.10;;;;;;;;;;5072709;28;20188;-70
2022/11/10 07:50:41;;;;;;;21.00;5.00;;;;;;;;;;5073901;28;20178;-71
2022/11/10 07:53:06;;;;;;;14.50;4.60;;;;;;;;;;5074233;28;20202;-71
2022/11/10 07:55:33;;;;;;;20.63;4.60;;;;;;;;;;5074088;28;20204;-71
2022/11/10 07:57:59;;;;;;;19.27;4.83;;;;;;;;;;5073974;28;20173;-71
2022/11/10 08:00:25;;;;;;;15.60;4.20;;;;;;;;;;5073614;28;20559;-71
2022/11/10 08:02:52;;;;;;;12.63;4.13;;;;;;;;;;5078738;28;20182;-71
2022/11/10 08:05:18;;;;;;;18.50;4.10;;;;;;;;;;5088114;28;20228;-70
2022/11/10 08:07:44;;;;;;;9.93;4.30;;;;;;;;;;5088881;28;20200;-71
2022/11/10 08:10:10;;;;;;;17.10;4.50;;;;;;;;;;5085262;28;20249;-71
2022/11/10 08:12:36;;;;;;;16.47;4.10;;;;;;;;;;5072873;28;20210;-71
2022/11/10 08:15:03;;;;;;;14.73;3.63;;;;;;;;;;5072052;28;20174;-71
2022/11/10 08:17:28;;;;;;;15.10;4.37;;;;;;;;;;5072226;28;20271;-71
2022/11/10 08:19:54;;;;;;;14.13;4.00;;;;;;;;;;5073528;28;20209;-71
2022/11/10 08:22:20;;;;;;;18.67;4.57;;;;;;;;;;5078510;28;20173;-71
2022/11/10 08:24:46;;;;;;;14.60;3.43;;;;;;;;;;5080252;28;20174;-71
2022/11/10 08:27:12;;;;;;;7.97;2.53;;;;;;;;;;5079878;28;20665;-71
2022/11/10 08:29:38;;;;;;;14.53;3.70;;;;;;;;;;5080307;28;20219;-71
2022/11/10 08:32:04;;;;;;;15.60;4.03;;;;;;;;;;5079970;28;20227;-72
2022/11/10 08:34:30;;;;;;;14.83;3.37;;;;;;;;;;5079747;28;20177;-72
2022/11/10 08:36:56;;;;;;;14.73;3.73;;;;;;;;;;5079768;28;20577;-71
2022/11/10 08:39:22;;;;;;;13.33;3.27;;;;;;;;;;5079771;28;20638;-71
2022/11/10 08:41:48;;;;;;;16.37;3.37;;;;;;;;;;5079887;28;20203;-72
2022/11/10 08:44:14;;;;;;;19.37;4.83;;;;;;;;;;5079768;28;20182;-72
2022/11/10 08:46:43;;;;;;;13.50;7.37;;;;;;;;;;5079825;28;20252;-72
2022/11/10 08:49:09;;;;;;;11.37;3.33;;;;;;;;;;5079998;28;20174;-72
2022/11/10 08:51:34;;;;;;;11.77;3.67;;;;;;;;;;5079905;28;20316;-72
2022/11/10 08:54:00;;;;;;;15.83;4.03;;;;;;;;;;5078931;28;20237;-72
2022/11/10 08:56:26;;;;;;;18.97;4.17;;;;;;;;;;5079918;28;20201;-72
2022/11/10 08:58:53;;;;;;;13.80;3.57;;;;;;;;;;5081204;28;20184;-72
2022/11/10 09:01:19;;;;;;;17.60;4.27;;;;;;;;;;5079995;28;20184;-72
2022/11/10 09:03:45;;;;;;;13.07;3.77;;;;;;;;;;5078707;28;20223;-72
2022/11/10 09:06:11;;;;;;;18.40;3.53;;;;;;;;;;5078827;28;20657;-71
2022/11/10 09:08:37;;;;;;;13.07;3.77;;;;;;;;;;5079712;28;20667;-71
2022/11/10 09:11:03;;;;;;;16.10;3.67;;;;;;;;;;5078287;28;20197;-72
2022/11/10 09:13:29;;;;;;;20.37;3.87;;;;;;;;;;5079399;28;20210;-71
2022/11/10 09:15:55;;;;;;;11.43;3.50;;;;;;;;;;5079573;28;20227;-72
2022/11/10 09:18:21;;;;;;;18.13;3.93;;;;;;;;;;5079551;28;20197;-72
2022/11/10 09:20:47;;;;;;;14.67;5.70;;;;;;;;;;5078163;28;20217;-73
2022/11/10 09:23:15;;;;;;;20.90;3.93;;;;;;;;;;5078228;28;20193;-72
2022/11/10 09:25:42;;;;;;;11.20;3.17;;;;;;;;;;5079223;28;20232;-72
2022/11/10 09:28:12;;;;;;;10.77;3.27;;;;;;;;;;5077994;28;20272;-71
2022/11/10 09:30:39;;;;;;;20.13;3.83;;;;;;;;;;5077973;28;20193;-71
2022/11/10 09:33:04;;;;;;;18.67;4.57;;;;;;;;;;5078209;28;20562;-71
2022/11/10 09:35:30;;;;;;;24.70;4.57;;;;;;;;;;5074732;28;20198;-71
2022/11/10 09:37:56;;;;;;;21.30;3.63;;;;;;;;;;5076471;28;20181;-71
2022/11/10 09:40:27;;;;;;;16.77;4.33;;;;;;;;;;5076017;28;20543;-71
2022/11/10 09:42:55;;;;;;;19.07;4.27;;;;;;;;;;5075590;28;20185;-71
2022/11/10 09:45:32;;;;;;;13.60;3.03;;;;;;;;;;5074559;28;20630;-71
2022/11/10 09:48:00;;;;;;;11.20;3.80;;;;;;;;;;5075806;28;20637;-70
2022/11/10 09:50:46;;;;;;;12.37;3.30;;;;;;;;;;5074708;28;20181;-71
2022/11/10 09:53:33;;;;;;;15.37;3.93;;;;;;;;;;5074187;28;20220;-71
2022/11/10 09:56:01;;;;;;;18.40;4.03;;;;;;;;;;5068303;28;20288;-72
2022/11/10 09:58:34;;;;;;;17.30;3.27;;;;;;;;;;5075681;28;20208;-71
2022/11/10 10:01:18;;;;;;;14.47;3.87;;;;;;;;;;5074443;28;20219;-71
2022/11/10 10:03:47;;;;;;;15.13;3.43;;;;;;;;;;5075863;28;20178;-71
2022/11/10 10:06:15;;;;;;;13.67;3.73;;;;;;;;;;5075690;28;20206;-71
2022/11/10 10:08:47;;;;;;;15.57;3.80;;;;;;;;;;5074429;28;20642;-71
2022/11/10 10:11:19;;;;;;;15.20;3.27;;;;;;;;;;5075959;28;20177;-71
2022/11/10 10:13:45;;;;;;;15.73;3.80;;;;;;;;;;5075601;28;20552;-71
2022/11/10 10:16:19;;;;;;;18.40;3.80;;;;;;;;;;5075615;28;20234;-71
2022/11/10 10:18:58;;;;;;;16.80;3.80;;;;;;;;;;5075741;28;20218;-70
2022/11/10 10:21:30;;;;;;;17.27;3.37;;;;;;;;;;5075683;28;20170;-72
2022/11/10 10:23:58;;;;;;;14.07;3.27;;;;;;;;;;5075508;28;20181;-71
2022/11/10 10:26:29;;;;;;;14.53;3.87;;;;;;;;;;5073964;28;20210;-71
2022/11/10 10:28:57;;;;;;;21.17;4.57;;;;;;;;;;5075489;28;20565;-72
2022/11/10 10:31:23;;;;;;;15.47;3.83;;;;;;;;;;5075242;28;20177;-72
2022/11/10 10:33:50;;;;;;;10.40;3.17;;;;;;;;;;5075182;28;20240;-72
2022/11/10 10:36:22;;;;;;;12.70;3.70;;;;;;;;;;5075085;28;20571;-72
2022/11/10 10:38:50;;;;;;;12.87;3.13;;;;;;;;;;5075008;28;20185;-72
2022/11/10 10:41:24;;;;;;;16.03;3.23;;;;;;;;;;5075202;28;20174;-72
2022/11/10 10:43:52;;;;;;;13.93;3.90;;;;;;;;;;5073395;28;20188;-72
2022/11/10 10:46:23;;;;;;;17.83;3.80;;;;;;;;;;5073218;28;20221;-72
2022/11/10 10:49:05;;;;;;;11.53;2.83;;;;;;;;;;5073553;28;20261;-72
2022/11/10 10:51:31;;;;;;;14.57;3.27;;;;;;;;;;5074993;28;20166;-72
2022/11/10 10:53:56;;;;;;;12.73;2.80;;;;;;;;;;5074562;28;20205;-72
2022/11/10 10:56:26;;;;;;;22.43;3.93;;;;;;;;;;5074759;28;20633;-72
2022/11/10 10:58:54;;;;;;;14.77;3.40;;;;;;;;;;5073301;28;20174;-72
2022/11/10 11:01:33;;;;;;;12.07;3.13;;;;;;;;;;5074535;28;20178;-72
2022/11/10 11:04:00;;;;;;;8.87;2.93;;;;;;;;;;5073103;28;20189;-71
2022/11/10 11:06:30;;;;;;;11.83;2.90;;;;;;;;;;5074567;28;20692;-71
2022/11/10 11:08:57;;;;;;;12.93;3.43;;;;;;;;;;5084827;22;20230;-65
2022/11/10 11:11:24;;;;;;;15.20;3.50;;;;;;;;;;5053888;28;20175;-65
2022/11/10 11:13:50;;;;;;;10.77;3.23;;;;;;;;;;5053851;28;20198;-65
2022/11/10 11:16:16;;;;;;;12.93;2.87;;;;;;;;;;5054108;28;20175;-65
2022/11/10 11:18:42;;;;;;;13.07;3.50;;;;;;;;;;5054368;28;20203;-65
2022/11/10 11:21:20;;;;;;;13.33;3.10;;;;;;;;;;5053735;28;20188;-65
2022/11/10 11:23:55;;;;;;;8.80;2.90;;;;;;;;;;5054094;28;20311;-65
2022/11/10 11:26:38;;;;;;;10.43;3.57;;;;;;;;;;5036276;28;20178;-65
2022/11/10 11:29:14;;;;;;;8.47;2.80;;;;;;;;;;5035775;28;20202;-65
2022/11/10 11:31:48;;;;;;;11.10;3.20;;;;;;;;;;5053570;28;20228;-65
2022/11/10 11:34:21;;;;;;;11.93;3.10;;;;;;;;;;5053769;28;20198;-65
2022/11/10 11:37:05;;;;;;;10.37;3.27;;;;;;;;;;5054135;28;20252;-65
2022/11/10 11:39:37;;;;;;;13.63;2.87;;;;;;;;;;5035677;28;20179;-65
2022/11/10 11:42:18;;;;;;;10.13;3.23;;;;;;;;;;5053557;28;20171;-65
2022/11/10 11:44:53;;;;;;;9.10;2.90;;;;;;;;;;5053847;28;20293;-67
2022/11/10 11:47:34;;;;;;;10.03;2.63;;;;;;;;;;5053961;28;20248;-65
2022/11/10 11:50:06;;;;;;;12.53;2.80;;;;;;;;;;5053534;28;20179;-65
2022/11/10 11:52:40;;;;;;;14.47;3.40;;;;;;;;;;5053678;28;20194;-65
2022/11/10 11:55:12;;;;;;;10.33;2.73;;;;;;;;;;5054120;28;20570;-66
2022/11/10 11:57:44;;;;;;;9.43;3.10;;;;;;;;;;5034382;28;20678;-66
2022/11/10 12:00:14;;;;;;;9.93;3.63;;;;;;;;;;5053346;28;20174;-66
2022/11/10 12:02:47;;;;;;;9.80;2.73;;;;;;;;;;5053135;28;20189;-65
2022/11/10 12:05:25;;;;;;;9.63;2.70;;;;;;;;;;5035346;28;20547;-65
2022/11/10 12:07:51;;;;;;;9.30;3.23;;;;;;;;;;5035176;28;20222;-65
2022/11/10 12:10:22;;;;;;;7.77;2.40;;;;;;;;;;5052996;28;20665;-64
2022/11/10 12:13:07;;;;;;;13.07;2.90;;;;;;;;;;5053181;28;20190;-65
2022/11/10 12:15:33;;;;;;;8.77;3.47;;;;;;;;;;5035097;28;20178;-65
2022/11/10 12:18:05;;;;;;;13.70;3.37;;;;;;;;;;5035262;28;20682;-65
2022/11/10 12:20:37;;;;;;;7.87;2.47;;;;;;;;;;5052991;28;20176;-63
2022/11/10 12:23:09;;;;;;;11.27;2.83;;;;;;;;;;5052942;28;20186;-64
2022/11/10 12:25:41;;;;;;;10.57;2.97;;;;;;;;;;5035030;28;20183;-67
2022/11/10 12:28:22;;;;;;;11.30;2.70;;;;;;;;;;5053223;28;20678;-64
2022/11/10 12:30:50;;;;;;;11.23;3.10;;;;;;;;;;5052861;28;20178;-67
2022/11/10 12:33:35;;;;;;;10.57;2.30;;;;;;;;;;5052543;28;20202;-65
2022/11/10 12:36:02;;;;;;;9.03;2.40;;;;;;;;;;5035307;28;20547;-64
2022/11/10 12:38:36;;;;;;;10.87;3.30;;;;;;;;;;5034824;28;20194;-64
2022/11/10 12:41:07;;;;;;;12.10;3.30;;;;;;;;;;5053086;28;20627;-66
2022/11/10 12:43:34;;;;;;;10.20;2.70;;;;;;;;;;5053337;28;20167;-65
2022/11/10 12:46:03;;;;;;;12.47;2.83;;;;;;;;;;5052968;28;20185;-66
2022/11/10 12:48:34;;;;;;;10.00;2.90;;;;;;;;;;5035070;28;20198;-65
2022/11/10 12:51:23;;;;;;;9.90;2.50;;;;;;;;;;5034903;28;20182;-68
2022/11/10 12:53:49;;;;;;;8.77;2.33;;;;;;;;;;5053349;28;20194;-69
2022/11/10 12:56:22;;;;;;;8.27;2.60;;;;;;;;;;5034889;28;20268;-66
2022/11/10 12:58:48;;;;;;;8.33;2.40;;;;;;;;;;5052587;28;20199;-66
2022/11/10 13:01:17;;;;;;;12.77;2.67;;;;;;;;;;5034923;28;20270;-66
2022/11/10 13:03:54;;;;;;;9.37;2.03;;;;;;;;;;5034969;28;20190;-66
2022/11/10 13:06:25;;;;;;;10.20;2.40;;;;;;;;;;5034929;28;20189;-65
2022/11/10 13:08:51;;;;;;;7.63;2.37;;;;;;;;;;5037543;28;20236;-66
2022/11/10 13:11:17;;;;;;;8.23;2.20;;;;;;;;;;5056399;28;20649;-66
2022/11/10 13:13:50;;;;;;;7.90;2.60;;;;;;;;;;5038297;28;20301;-66
2022/11/10 13:16:35;;;;;;;7.87;2.60;;;;;;;;;;5038760;28;20167;-65
2022/11/10 13:19:01;;;;;;;7.13;2.70;;;;;;;;;;5055999;28;20612;-65
2022/11/10 13:22:05;;;;;;;5.53;2.57;;;;;;;;;;5056169;28;20175;-65
2022/11/10 13:24:39;;;;;;;8.97;2.20;;;;;;;;;;4959008;28;20181;-66
2022/11/10 13:27:10;;;;;;;7.77;2.70;;;;;;;;;;4975125;28;20174;-66
2022/11/10 13:29:42;;;;;;;8.70;2.70;;;;;;;;;;5003223;28;20228;-66
2022/11/10 13:32:08;;;;;;;6.57;2.40;;;;;;;;;;5056145;28;20202;-66
2022/11/10 13:34:37;;;;;;;10.57;2.73;;;;;;;;;;5055954;28;20705;-66
2022/11/10 13:37:23;;;;;;;11.90;2.53;;;;;;;;;;5038089;28;20269;-65
2022/11/10 13:39:49;;;;;;;8.33;2.73;;;;;;;;;;5038171;28;20174;-65
2022/11/10 13:42:17;;;;;;;9.07;3.00;;;;;;;;;;5056159;28;20544;-65
2022/11/10 13:44:47;;;;;;;10.00;2.60;;;;;;;;;;5056047;28;20702;-65
2022/11/10 13:47:34;;;;;;;9.97;2.50;;;;;;;;;;5056007;28;20175;-65
2022/11/10 13:50:13;;;;;;;7.97;2.37;;;;;;;;;;5037807;28;20198;-66
2022/11/10 13:52:45;;;;;;;6.43;2.00;;;;;;;;;;5037546;28;20202;-65
2022/11/10 13:55:14;;;;;;;9.67;2.20;;;;;;;;;;5055429;28;20677;-68
2022/11/10 13:57:51;;;;;;;4.90;2.23;;;;;;;;;;5037576;28;20202;-65
2022/11/10 14:00:17;;;;;;;7.30;2.60;;;;;;;;;;5037603;28;20174;-65
2022/11/10 14:02:45;;;;;;;7.30;2.57;;;;;;;;;;5055578;28;20215;-65
2022/11/10 14:05:40;;;;;;;10.03;2.03;;;;;;;;;;5037588;28;20190;-66
2022/11/10 14:08:11;;;;;;;7.33;2.50;;;;;;;;;;5037328;28;20233;-63
2022/11/10 14:10:39;;;;;;;9.00;2.17;;;;;;;;;;5037304;28;20225;-67
2022/11/10 14:13:13;;;;;;;8.97;2.30;;;;;;;;;;5055296;28;20203;-65
2022/11/10 14:15:42;;;;;;;9.77;2.40;;;;;;;;;;5037273;28;20185;-66
2022/11/10 14:18:18;;;;;;;8.97;2.73;;;;;;;;;;5055314;28;20190;-64
2022/11/10 14:20:45;;;;;;;6.40;2.20;;;;;;;;;;5036534;28;20500;-64
2022/11/10 14:23:35;;;;;;;6.47;2.17;;;;;;;;;;5038098;28;20216;-64
2022/11/10 14:26:05;;;;;;;9.57;2.43;;;;;;;;;;5017969;28;20203;-64
2022/11/10 14:28:31;;;;;;;7.23;2.17;;;;;;;;;;5055571;28;20209;-65
2022/11/10 14:30:58;;;;;;;9.67;2.20;;;;;;;;;;5055195;28;20189;-64
2022/11/10 14:33:25;;;;;;;6.30;2.50;;;;;;;;;;5037119;28;20238;-65
2022/11/10 14:35:53;;;;;;;7.67;2.30;;;;;;;;;;5054879;28;20208;-65
2022/11/10 14:38:20;;;;;;;7.53;2.57;;;;;;;;;;5037146;28;20200;-65
2022/11/10 14:40:47;;;;;;;8.63;2.40;;;;;;;;;;5055412;28;20183;-68
2022/11/10 14:43:33;;;;;;;7.83;2.17;;;;;;;;;;5037372;28;20190;-66
2022/11/10 14:45:59;;;;;;;5.03;2.50;;;;;;;;;;5055801;28;20602;-70
2022/11/10 14:48:30;;;;;;;5.60;2.00;;;;;;;;;;5037056;28;20279;-68
2022/11/10 14:51:02;;;;;;;6.73;2.10;;;;;;;;;;5037006;28;20221;-65
2022/11/10 14:53:35;;;;;;;6.03;2.23;;;;;;;;;;5056732;28;20198;-67
2022/11/10 14:56:02;;;;;;;7.53;3.03;;;;;;;;;;5039085;28;20319;-67